Terminal Aerodrome Forecast
Issued by NWS

Home | Current Version | Previous Version | Text Only | Print | Product List | Glossary On
Versions: 1 2 3 4 5 6 7 8 9 10 11 12 13 14 15 16 17 18 19
065
FTUS41 KCAR 070949 AAA
TAFBHB
TAF AMD
KBHB 070949Z 0710/0806 VRB03KT P6SM SCT020
     FM071300 VRB03KT 5SM -SN OVC025
     FM071700 18004KT P6SM VCSH OVC025=

USA.gov is the U.S. government's official web portal to all federal, state and local government web resources and services.